sensor_id;sensor_type;location;lat;lon;timestamp;P1;durP1;ratioP1;P2;durP2;ratioP2
6828;SDS011;17930;48.592;8.868;2024-03-08T00:02:35;30.35;;;14.82;;
6828;SDS011;17930;48.592;8.868;2024-03-08T00:05:02;32.28;;;15.07;;
6828;SDS011;17930;48.592;8.868;2024-03-08T00:07:29;29.30;;;14.88;;
6828;SDS011;17930;48.592;8.868;2024-03-08T00:09:56;30.88;;;13.25;;
6828;SDS011;17930;48.592;8.868;2024-03-08T00:12:24;28.73;;;14.00;;
6828;SDS011;17930;48.592;8.868;2024-03-08T00:14:51;30.23;;;14.40;;
6828;SDS011;17930;48.592;8.868;2024-03-08T00:17:17;29.33;;;12.63;;
6828;SDS011;17930;48.592;8.868;2024-03-08T00:19:44;25.55;;;12.10;;
6828;SDS011;17930;48.592;8.868;2024-03-08T00:22:11;30.05;;;14.07;;
6828;SDS011;17930;48.592;8.868;2024-03-08T00:24:37;25.45;;;12.73;;
6828;SDS011;17930;48.592;8.868;2024-03-08T00:27:05;22.13;;;11.48;;
6828;SDS011;17930;48.592;8.868;2024-03-08T00:29:33;26.45;;;11.70;;
6828;SDS011;17930;48.592;8.868;2024-03-08T00:32:02;21.92;;;12.00;;
6828;SDS011;17930;48.592;8.868;2024-03-08T00:34:29;29.42;;;12.85;;
6828;SDS011;17930;48.592;8.868;2024-03-08T00:36:56;24.08;;;12.30;;
6828;SDS011;17930;48.592;8.868;2024-03-08T00:39:23;22.88;;;11.45;;
6828;SDS011;17930;48.592;8.868;2024-03-08T00:41:50;21.45;;;10.45;;
6828;SDS011;17930;48.592;8.868;2024-03-08T00:44:17;24.35;;;12.13;;
6828;SDS011;17930;48.592;8.868;2024-03-08T00:46:45;25.38;;;12.85;;
6828;SDS011;17930;48.592;8.868;2024-03-08T00:49:12;27.73;;;13.85;;
6828;SDS011;17930;48.592;8.868;2024-03-08T00:51:38;30.08;;;14.00;;
6828;SDS011;17930;48.592;8.868;2024-03-08T00:54:05;25.85;;;12.68;;
6828;SDS011;17930;48.592;8.868;2024-03-08T00:56:32;27.13;;;12.73;;
6828;SDS011;17930;48.592;8.868;2024-03-08T00:59:00;25.73;;;13.18;;
6828;SDS011;17930;48.592;8.868;2024-03-08T01:01:27;30.98;;;14.60;;
6828;SDS011;17930;48.592;8.868;2024-03-08T01:03:56;27.80;;;13.48;;
6828;SDS011;17930;48.592;8.868;2024-03-08T01:06:23;25.65;;;13.13;;
6828;SDS011;17930;48.592;8.868;2024-03-08T01:08:50;26.27;;;13.48;;
6828;SDS011;17930;48.592;8.868;2024-03-08T01:11:18;25.42;;;12.38;;
6828;SDS011;17930;48.592;8.868;2024-03-08T01:13:44;26.88;;;13.07;;
6828;SDS011;17930;48.592;8.868;2024-03-08T01:16:12;33.03;;;13.73;;
6828;SDS011;17930;48.592;8.868;2024-03-08T01:18:39;25.13;;;12.38;;
6828;SDS011;17930;48.592;8.868;2024-03-08T01:21:07;28.10;;;13.35;;
6828;SDS011;17930;48.592;8.868;2024-03-08T01:23:33;28.70;;;13.40;;
6828;SDS011;17930;48.592;8.868;2024-03-08T01:26:00;27.02;;;12.98;;
6828;SDS011;17930;48.592;8.868;2024-03-08T01:28:27;28.33;;;14.07;;
6828;SDS011;17930;48.592;8.868;2024-03-08T01:30:54;26.00;;;12.30;;
6828;SDS011;17930;48.592;8.868;2024-03-08T01:33:21;29.35;;;13.32;;
6828;SDS011;17930;48.592;8.868;2024-03-08T01:35:49;27.25;;;13.77;;
6828;SDS011;17930;48.592;8.868;2024-03-08T01:38:17;27.38;;;13.60;;
6828;SDS011;17930;48.592;8.868;2024-03-08T01:40:43;28.27;;;13.93;;
6828;SDS011;17930;48.592;8.868;2024-03-08T01:43:17;27.95;;;12.80;;
6828;SDS011;17930;48.592;8.868;2024-03-08T01:45:44;28.95;;;13.30;;
6828;SDS011;17930;48.592;8.868;2024-03-08T01:48:11;30.92;;;13.85;;
6828;SDS011;17930;48.592;8.868;2024-03-08T01:50:38;30.42;;;13.82;;
6828;SDS011;17930;48.592;8.868;2024-03-08T01:53:05;28.65;;;12.98;;
6828;SDS011;17930;48.592;8.868;2024-03-08T01:55:36;27.20;;;12.73;;
6828;SDS011;17930;48.592;8.868;2024-03-08T01:58:04;26.52;;;13.10;;
6828;SDS011;17930;48.592;8.868;2024-03-08T02:00:31;28.05;;;13.05;;
6828;SDS011;17930;48.592;8.868;2024-03-08T02:03:00;26.25;;;12.40;;
6828;SDS011;17930;48.592;8.868;2024-03-08T02:05:27;25.05;;;11.55;;
6828;SDS011;17930;48.592;8.868;2024-03-08T02:07:54;29.10;;;11.40;;
6828;SDS011;17930;48.592;8.868;2024-03-08T02:10:22;29.55;;;12.77;;
6828;SDS011;17930;48.592;8.868;2024-03-08T02:12:50;25.90;;;12.68;;
6828;SDS011;17930;48.592;8.868;2024-03-08T02:15:17;29.48;;;13.63;;
6828;SDS011;17930;48.592;8.868;2024-03-08T02:17:44;30.55;;;13.75;;
6828;SDS011;17930;48.592;8.868;2024-03-08T02:20:11;29.67;;;13.77;;
6828;SDS011;17930;48.592;8.868;2024-03-08T02:22:40;28.30;;;13.50;;
6828;SDS011;17930;48.592;8.868;2024-03-08T02:25:07;32.15;;;14.98;;
6828;SDS011;17930;48.592;8.868;2024-03-08T02:27:34;29.02;;;13.13;;
6828;SDS011;17930;48.592;8.868;2024-03-08T02:30:01;35.45;;;14.48;;
6828;SDS011;17930;48.592;8.868;2024-03-08T02:32:28;39.72;;;16.05;;
6828;SDS011;17930;48.592;8.868;2024-03-08T02:34:57;29.60;;;13.40;;
6828;SDS011;17930;48.592;8.868;2024-03-08T02:37:25;29.05;;;14.23;;
6828;SDS011;17930;48.592;8.868;2024-03-08T02:39:55;30.63;;;14.70;;
6828;SDS011;17930;48.592;8.868;2024-03-08T02:42:23;33.63;;;14.02;;
6828;SDS011;17930;48.592;8.868;2024-03-08T02:44:49;32.95;;;15.80;;
6828;SDS011;17930;48.592;8.868;2024-03-08T02:47:16;29.38;;;12.15;;
6828;SDS011;17930;48.592;8.868;2024-03-08T02:49:43;27.60;;;12.40;;
6828;SDS011;17930;48.592;8.868;2024-03-08T02:52:09;33.58;;;14.75;;
6828;SDS011;17930;48.592;8.868;2024-03-08T02:54:36;36.30;;;15.45;;
6828;SDS011;17930;48.592;8.868;2024-03-08T02:57:04;31.02;;;14.43;;
6828;SDS011;17930;48.592;8.868;2024-03-08T02:59:32;28.27;;;13.20;;
6828;SDS011;17930;48.592;8.868;2024-03-08T03:01:59;28.50;;;14.00;;
6828;SDS011;17930;48.592;8.868;2024-03-08T03:04:26;31.58;;;14.27;;
6828;SDS011;17930;48.592;8.868;2024-03-08T03:06:53;32.83;;;14.57;;
6828;SDS011;17930;48.592;8.868;2024-03-08T03:09:20;31.98;;;14.63;;
6828;SDS011;17930;48.592;8.868;2024-03-08T03:11:52;29.77;;;14.05;;
6828;SDS011;17930;48.592;8.868;2024-03-08T03:14:21;30.35;;;13.23;;
6828;SDS011;17930;48.592;8.868;2024-03-08T03:16:48;26.58;;;13.77;;
6828;SDS011;17930;48.592;8.868;2024-03-08T03:19:15;35.97;;;14.05;;
6828;SDS011;17930;48.592;8.868;2024-03-08T03:21:42;28.38;;;12.40;;
6828;SDS011;17930;48.592;8.868;2024-03-08T03:24:09;28.13;;;13.10;;
6828;SDS011;17930;48.592;8.868;2024-03-08T03:26:36;31.75;;;13.40;;
6828;SDS011;17930;48.592;8.868;2024-03-08T03:29:04;29.80;;;13.23;;
6828;SDS011;17930;48.592;8.868;2024-03-08T03:31:34;24.30;;;11.65;;
6828;SDS011;17930;48.592;8.868;2024-03-08T03:34:01;29.80;;;12.85;;
6828;SDS011;17930;48.592;8.868;2024-03-08T03:36:29;28.95;;;12.90;;
6828;SDS011;17930;48.592;8.868;2024-03-08T03:38:56;24.85;;;12.93;;
6828;SDS011;17930;48.592;8.868;2024-03-08T03:41:31;31.25;;;13.10;;
6828;SDS011;17930;48.592;8.868;2024-03-08T03:43:57;31.58;;;12.27;;
6828;SDS011;17930;48.592;8.868;2024-03-08T03:46:24;27.00;;;13.02;;
6828;SDS011;17930;48.592;8.868;2024-03-08T03:48:53;26.35;;;12.75;;
6828;SDS011;17930;48.592;8.868;2024-03-08T03:51:20;28.33;;;13.75;;
6828;SDS011;17930;48.592;8.868;2024-03-08T03:53:47;25.05;;;11.73;;
6828;SDS011;17930;48.592;8.868;2024-03-08T03:56:14;25.42;;;12.52;;
6828;SDS011;17930;48.592;8.868;2024-03-08T03:58:40;29.08;;;12.90;;
6828;SDS011;17930;48.592;8.868;2024-03-08T04:01:07;29.23;;;12.02;;
6828;SDS011;17930;48.592;8.868;2024-03-08T04:03:35;33.35;;;13.65;;
6828;SDS011;17930;48.592;8.868;2024-03-08T04:06:03;29.45;;;12.32;;
6828;SDS011;17930;48.592;8.868;2024-03-08T04:08:30;36.20;;;13.00;;
6828;SDS011;17930;48.592;8.868;2024-03-08T04:10:59;30.77;;;12.68;;
6828;SDS011;17930;48.592;8.868;2024-03-08T04:13:26;30.33;;;13.18;;
6828;SDS011;17930;48.592;8.868;2024-03-08T04:15:53;31.42;;;12.70;;
6828;SDS011;17930;48.592;8.868;2024-03-08T04:18:20;33.42;;;13.90;;
6828;SDS011;17930;48.592;8.868;2024-03-08T04:20:47;30.13;;;12.77;;
6828;SDS011;17930;48.592;8.868;2024-03-08T04:23:15;24.10;;;12.73;;
6828;SDS011;17930;48.592;8.868;2024-03-08T04:25:43;26.77;;;13.07;;
6828;SDS011;17930;48.592;8.868;2024-03-08T04:28:09;31.92;;;13.90;;
6828;SDS011;17930;48.592;8.868;2024-03-08T04:30:37;31.38;;;13.18;;
6828;SDS011;17930;48.592;8.868;2024-03-08T04:33:04;26.45;;;12.43;;
6828;SDS011;17930;48.592;8.868;2024-03-08T04:35:31;31.08;;;12.60;;
6828;SDS011;17930;48.592;8.868;2024-03-08T04:37:58;24.52;;;11.77;;
6828;SDS011;17930;48.592;8.868;2024-03-08T04:40:26;24.52;;;12.25;;
6828;SDS011;17930;48.592;8.868;2024-03-08T04:42:53;26.50;;;12.80;;
6828;SDS011;17930;48.592;8.868;2024-03-08T04:45:20;24.67;;;11.70;;
6828;SDS011;17930;48.592;8.868;2024-03-08T04:47:47;31.77;;;11.80;;
6828;SDS011;17930;48.592;8.868;2024-03-08T04:50:14;28.60;;;13.27;;
6828;SDS011;17930;48.592;8.868;2024-03-08T04:52:41;34.03;;;12.60;;
6828;SDS011;17930;48.592;8.868;2024-03-08T04:55:08;26.80;;;12.43;;
6828;SDS011;17930;48.592;8.868;2024-03-08T04:57:36;29.67;;;12.85;;
6828;SDS011;17930;48.592;8.868;2024-03-08T05:00:03;38.05;;;13.85;;
6828;SDS011;17930;48.592;8.868;2024-03-08T05:02:36;28.70;;;12.95;;
6828;SDS011;17930;48.592;8.868;2024-03-08T05:05:04;28.67;;;13.27;;
6828;SDS011;17930;48.592;8.868;2024-03-08T05:07:32;28.17;;;11.70;;
6828;SDS011;17930;48.592;8.868;2024-03-08T05:09:59;28.58;;;12.70;;
6828;SDS011;17930;48.592;8.868;2024-03-08T05:12:25;30.38;;;12.27;;
6828;SDS011;17930;48.592;8.868;2024-03-08T05:14:53;36.00;;;13.75;;
6828;SDS011;17930;48.592;8.868;2024-03-08T05:17:21;32.22;;;13.68;;
6828;SDS011;17930;48.592;8.868;2024-03-08T05:19:49;31.55;;;13.70;;
6828;SDS011;17930;48.592;8.868;2024-03-08T05:22:16;35.70;;;14.75;;
6828;SDS011;17930;48.592;8.868;2024-03-08T05:24:42;35.70;;;14.02;;
6828;SDS011;17930;48.592;8.868;2024-03-08T05:27:09;34.90;;;13.55;;
6828;SDS011;17930;48.592;8.868;2024-03-08T05:29:36;29.38;;;14.13;;
6828;SDS011;17930;48.592;8.868;2024-03-08T05:32:04;36.17;;;13.90;;
6828;SDS011;17930;48.592;8.868;2024-03-08T05:34:32;26.25;;;12.85;;
6828;SDS011;17930;48.592;8.868;2024-03-08T05:37:00;31.58;;;14.27;;
6828;SDS011;17930;48.592;8.868;2024-03-08T05:39:27;29.17;;;13.15;;
6828;SDS011;17930;48.592;8.868;2024-03-08T05:41:54;28.50;;;13.88;;
6828;SDS011;17930;48.592;8.868;2024-03-08T05:44:22;35.10;;;15.02;;
6828;SDS011;17930;48.592;8.868;2024-03-08T05:46:49;30.40;;;14.15;;
6828;SDS011;17930;48.592;8.868;2024-03-08T05:49:17;27.65;;;13.23;;
6828;SDS011;17930;48.592;8.868;2024-03-08T05:51:43;37.08;;;15.48;;
6828;SDS011;17930;48.592;8.868;2024-03-08T05:54:13;32.20;;;14.65;;
6828;SDS011;17930;48.592;8.868;2024-03-08T05:56:39;35.13;;;15.07;;
6828;SDS011;17930;48.592;8.868;2024-03-08T05:59:07;34.30;;;15.50;;
6828;SDS011;17930;48.592;8.868;2024-03-08T06:01:34;37.20;;;15.18;;
6828;SDS011;17930;48.592;8.868;2024-03-08T06:04:01;31.95;;;14.13;;
6828;SDS011;17930;48.592;8.868;2024-03-08T06:06:30;30.83;;;14.82;;
6828;SDS011;17930;48.592;8.868;2024-03-08T06:08:57;30.05;;;13.48;;
6828;SDS011;17930;48.592;8.868;2024-03-08T06:11:24;32.70;;;14.35;;
6828;SDS011;17930;48.592;8.868;2024-03-08T06:13:53;28.35;;;14.55;;
6828;SDS011;17930;48.592;8.868;2024-03-08T06:16:25;37.63;;;15.80;;
6828;SDS011;17930;48.592;8.868;2024-03-08T06:18:54;33.03;;;14.00;;
6828;SDS011;17930;48.592;8.868;2024-03-08T06:21:22;35.67;;;16.38;;
6828;SDS011;17930;48.592;8.868;2024-03-08T06:23:53;30.83;;;15.05;;
6828;SDS011;17930;48.592;8.868;2024-03-08T06:26:22;35.72;;;15.65;;
6828;SDS011;17930;48.592;8.868;2024-03-08T06:28:49;32.28;;;14.70;;
6828;SDS011;17930;48.592;8.868;2024-03-08T06:31:17;30.83;;;14.82;;
6828;SDS011;17930;48.592;8.868;2024-03-08T06:33:45;33.97;;;15.32;;
6828;SDS011;17930;48.592;8.868;2024-03-08T06:36:11;36.35;;;16.73;;
6828;SDS011;17930;48.592;8.868;2024-03-08T06:38:39;34.45;;;16.15;;
6828;SDS011;17930;48.592;8.868;2024-03-08T06:41:09;35.70;;;16.33;;
6828;SDS011;17930;48.592;8.868;2024-03-08T06:43:40;34.60;;;15.95;;
6828;SDS011;17930;48.592;8.868;2024-03-08T06:46:08;43.22;;;16.85;;
6828;SDS011;17930;48.592;8.868;2024-03-08T06:48:34;37.80;;;16.13;;
6828;SDS011;17930;48.592;8.868;2024-03-08T06:51:02;40.10;;;16.98;;
6828;SDS011;17930;48.592;8.868;2024-03-08T06:53:30;39.58;;;17.30;;
6828;SDS011;17930;48.592;8.868;2024-03-08T06:55:56;39.22;;;16.95;;
6828;SDS011;17930;48.592;8.868;2024-03-08T06:58:25;40.90;;;17.70;;
6828;SDS011;17930;48.592;8.868;2024-03-08T07:00:52;38.30;;;18.27;;
6828;SDS011;17930;48.592;8.868;2024-03-08T07:03:20;44.50;;;19.48;;
6828;SDS011;17930;48.592;8.868;2024-03-08T07:05:47;36.85;;;16.83;;
6828;SDS011;17930;48.592;8.868;2024-03-08T07:08:14;41.20;;;17.83;;
6828;SDS011;17930;48.592;8.868;2024-03-08T07:10:42;38.00;;;17.55;;
6828;SDS011;17930;48.592;8.868;2024-03-08T07:13:10;31.17;;;15.73;;
6828;SDS011;17930;48.592;8.868;2024-03-08T07:15:38;43.35;;;18.05;;
6828;SDS011;17930;48.592;8.868;2024-03-08T07:18:05;35.35;;;16.27;;
6828;SDS011;17930;48.592;8.868;2024-03-08T07:20:34;39.85;;;17.00;;
6828;SDS011;17930;48.592;8.868;2024-03-08T07:23:02;34.92;;;14.95;;
6828;SDS011;17930;48.592;8.868;2024-03-08T07:25:29;38.38;;;16.83;;
6828;SDS011;17930;48.592;8.868;2024-03-08T07:27:56;41.85;;;17.00;;
6828;SDS011;17930;48.592;8.868;2024-03-08T07:30:23;35.90;;;16.15;;
6828;SDS011;17930;48.592;8.868;2024-03-08T07:33:10;38.00;;;17.17;;
6828;SDS011;17930;48.592;8.868;2024-03-08T07:35:38;36.95;;;17.65;;
6828;SDS011;17930;48.592;8.868;2024-03-08T07:38:05;37.65;;;17.70;;
6828;SDS011;17930;48.592;8.868;2024-03-08T07:40:35;37.97;;;16.15;;
6828;SDS011;17930;48.592;8.868;2024-03-08T07:43:01;39.35;;;17.17;;
6828;SDS011;17930;48.592;8.868;2024-03-08T07:45:28;36.47;;;17.00;;
6828;SDS011;17930;48.592;8.868;2024-03-08T07:47:56;34.20;;;16.58;;
6828;SDS011;17930;48.592;8.868;2024-03-08T07:50:24;33.88;;;15.68;;
6828;SDS011;17930;48.592;8.868;2024-03-08T07:52:50;33.47;;;15.93;;
6828;SDS011;17930;48.592;8.868;2024-03-08T07:55:17;36.65;;;16.27;;
6828;SDS011;17930;48.592;8.868;2024-03-08T07:57:44;36.00;;;16.55;;
6828;SDS011;17930;48.592;8.868;2024-03-08T08:00:13;33.45;;;15.60;;
6828;SDS011;17930;48.592;8.868;2024-03-08T08:02:43;33.00;;;15.65;;
6828;SDS011;17930;48.592;8.868;2024-03-08T08:05:10;27.35;;;14.25;;
6828;SDS011;17930;48.592;8.868;2024-03-08T08:07:38;31.55;;;14.52;;
6828;SDS011;17930;48.592;8.868;2024-03-08T08:10:07;26.15;;;12.52;;
6828;SDS011;17930;48.592;8.868;2024-03-08T08:12:40;23.08;;;12.02;;
6828;SDS011;17930;48.592;8.868;2024-03-08T08:15:08;27.08;;;13.70;;
6828;SDS011;17930;48.592;8.868;2024-03-08T08:17:34;22.10;;;11.73;;
6828;SDS011;17930;48.592;8.868;2024-03-08T08:20:01;22.42;;;11.13;;
6828;SDS011;17930;48.592;8.868;2024-03-08T08:22:30;22.75;;;12.07;;
6828;SDS011;17930;48.592;8.868;2024-03-08T08:24:59;23.85;;;11.63;;
6828;SDS011;17930;48.592;8.868;2024-03-08T08:27:27;23.15;;;11.07;;
6828;SDS011;17930;48.592;8.868;2024-03-08T08:29:54;25.83;;;12.20;;
6828;SDS011;17930;48.592;8.868;2024-03-08T08:32:21;24.58;;;12.45;;
6828;SDS011;17930;48.592;8.868;2024-03-08T08:34:47;21.85;;;11.23;;
6828;SDS011;17930;48.592;8.868;2024-03-08T08:37:14;23.45;;;11.45;;
6828;SDS011;17930;48.592;8.868;2024-03-08T08:39:41;22.13;;;10.45;;
6828;SDS011;17930;48.592;8.868;2024-03-08T08:42:10;25.35;;;12.60;;
6828;SDS011;17930;48.592;8.868;2024-03-08T08:44:36;21.35;;;11.18;;
6828;SDS011;17930;48.592;8.868;2024-03-08T08:47:03;24.42;;;12.25;;
6828;SDS011;17930;48.592;8.868;2024-03-08T08:49:30;24.88;;;12.07;;
6828;SDS011;17930;48.592;8.868;2024-03-08T08:51:57;16.13;;;9.38;;
6828;SDS011;17930;48.592;8.868;2024-03-08T08:54:24;24.52;;;11.02;;
6828;SDS011;17930;48.592;8.868;2024-03-08T08:56:52;23.15;;;11.50;;
6828;SDS011;17930;48.592;8.868;2024-03-08T08:59:21;22.55;;;10.75;;
6828;SDS011;17930;48.592;8.868;2024-03-08T09:01:50;19.97;;;9.93;;
6828;SDS011;17930;48.592;8.868;2024-03-08T09:04:19;19.65;;;11.05;;
6828;SDS011;17930;48.592;8.868;2024-03-08T09:06:47;20.00;;;10.55;;
6828;SDS011;17930;48.592;8.868;2024-03-08T09:09:14;23.67;;;10.98;;
6828;SDS011;17930;48.592;8.868;2024-03-08T09:11:42;18.42;;;10.43;;
6828;SDS011;17930;48.592;8.868;2024-03-08T09:14:09;20.45;;;9.85;;
6828;SDS011;17930;48.592;8.868;2024-03-08T09:16:38;23.85;;;11.00;;
6828;SDS011;17930;48.592;8.868;2024-03-08T09:19:05;22.45;;;11.93;;
6828;SDS011;17930;48.592;8.868;2024-03-08T09:21:33;21.27;;;10.50;;
6828;SDS011;17930;48.592;8.868;2024-03-08T09:24:00;18.75;;;10.70;;
6828;SDS011;17930;48.592;8.868;2024-03-08T09:26:27;19.17;;;9.75;;
6828;SDS011;17930;48.592;8.868;2024-03-08T09:28:54;20.27;;;10.50;;
6828;SDS011;17930;48.592;8.868;2024-03-08T09:31:21;19.67;;;9.85;;
6828;SDS011;17930;48.592;8.868;2024-03-08T09:33:49;17.37;;;10.07;;
6828;SDS011;17930;48.592;8.868;2024-03-08T09:36:17;17.95;;;9.70;;
6828;SDS011;17930;48.592;8.868;2024-03-08T09:38:44;19.40;;;10.50;;
6828;SDS011;17930;48.592;8.868;2024-03-08T09:41:12;16.13;;;8.85;;
6828;SDS011;17930;48.592;8.868;2024-03-08T09:43:39;17.57;;;10.37;;
6828;SDS011;17930;48.592;8.868;2024-03-08T09:46:06;17.50;;;9.18;;
6828;SDS011;17930;48.592;8.868;2024-03-08T09:48:34;21.35;;;11.07;;
6828;SDS011;17930;48.592;8.868;2024-03-08T09:51:03;19.73;;;9.55;;
6828;SDS011;17930;48.592;8.868;2024-03-08T09:53:31;17.23;;;9.63;;
6828;SDS011;17930;48.592;8.868;2024-03-08T09:55:58;19.15;;;9.45;;
6828;SDS011;17930;48.592;8.868;2024-03-08T09:58:25;18.20;;;9.93;;
6828;SDS011;17930;48.592;8.868;2024-03-08T10:01:19;17.30;;;9.85;;
6828;SDS011;17930;48.592;8.868;2024-03-08T10:03:47;18.00;;;9.20;;
6828;SDS011;17930;48.592;8.868;2024-03-08T10:06:18;17.65;;;9.45;;
6828;SDS011;17930;48.592;8.868;2024-03-08T10:08:49;16.63;;;9.23;;
6828;SDS011;17930;48.592;8.868;2024-03-08T10:11:17;18.45;;;9.73;;
6828;SDS011;17930;48.592;8.868;2024-03-08T10:13:44;18.03;;;9.20;;
6828;SDS011;17930;48.592;8.868;2024-03-08T10:16:12;20.35;;;9.60;;
6828;SDS011;17930;48.592;8.868;2024-03-08T10:18:39;18.42;;;9.30;;
6828;SDS011;17930;48.592;8.868;2024-03-08T10:21:07;19.25;;;9.35;;
6828;SDS011;17930;48.592;8.868;2024-03-08T10:23:37;14.53;;;8.70;;
6828;SDS011;17930;48.592;8.868;2024-03-08T10:26:10;17.73;;;9.33;;
6828;SDS011;17930;48.592;8.868;2024-03-08T10:28:40;17.37;;;9.90;;
6828;SDS011;17930;48.592;8.868;2024-03-08T10:31:08;15.67;;;8.60;;
6828;SDS011;17930;48.592;8.868;2024-03-08T10:33:35;16.42;;;8.55;;
6828;SDS011;17930;48.592;8.868;2024-03-08T10:36:03;16.13;;;9.17;;
6828;SDS011;17930;48.592;8.868;2024-03-08T10:38:34;14.93;;;8.57;;
6828;SDS011;17930;48.592;8.868;2024-03-08T10:41:06;13.57;;;8.87;;
6828;SDS011;17930;48.592;8.868;2024-03-08T10:43:38;14.60;;;8.00;;
6828;SDS011;17930;48.592;8.868;2024-03-08T10:46:21;15.23;;;9.38;;
6828;SDS011;17930;48.592;8.868;2024-03-08T10:48:57;17.80;;;8.47;;
6828;SDS011;17930;48.592;8.868;2024-03-08T10:51:28;16.13;;;8.70;;
6828;SDS011;17930;48.592;8.868;2024-03-08T10:53:58;15.50;;;8.50;;
6828;SDS011;17930;48.592;8.868;2024-03-08T10:56:28;15.30;;;7.87;;
6828;SDS011;17930;48.592;8.868;2024-03-08T10:58:55;15.48;;;8.43;;
6828;SDS011;17930;48.592;8.868;2024-03-08T11:01:23;15.83;;;7.83;;
6828;SDS011;17930;48.592;8.868;2024-03-08T11:03:51;16.50;;;8.17;;
6828;SDS011;17930;48.592;8.868;2024-03-08T11:06:22;18.53;;;8.63;;
6828;SDS011;17930;48.592;8.868;2024-03-08T11:08:58;16.67;;;8.07;;
6828;SDS011;17930;48.592;8.868;2024-03-08T11:11:26;17.17;;;8.83;;
6828;SDS011;17930;48.592;8.868;2024-03-08T11:13:56;13.10;;;7.93;;
6828;SDS011;17930;48.592;8.868;2024-03-08T11:16:37;16.17;;;9.63;;
6828;SDS011;17930;48.592;8.868;2024-03-08T11:19:22;15.70;;;8.37;;
6828;SDS011;17930;48.592;8.868;2024-03-08T11:21:57;15.20;;;8.53;;
6828;SDS011;17930;48.592;8.868;2024-03-08T11:24:25;15.23;;;8.73;;
6828;SDS011;17930;48.592;8.868;2024-03-08T11:26:56;14.40;;;8.20;;
6828;SDS011;17930;48.592;8.868;2024-03-08T11:29:38;13.93;;;8.40;;
6828;SDS011;17930;48.592;8.868;2024-03-08T11:32:09;17.00;;;8.83;;
6828;SDS011;17930;48.592;8.868;2024-03-08T11:34:38;14.00;;;8.43;;
6828;SDS011;17930;48.592;8.868;2024-03-08T11:37:12;16.10;;;8.47;;
6828;SDS011;17930;48.592;8.868;2024-03-08T11:39:41;12.60;;;8.00;;
6828;SDS011;17930;48.592;8.868;2024-03-08T11:42:13;13.97;;;8.83;;
6828;SDS011;17930;48.592;8.868;2024-03-08T11:44:41;11.97;;;7.40;;
6828;SDS011;17930;48.592;8.868;2024-03-08T11:47:09;13.83;;;7.60;;
6828;SDS011;17930;48.592;8.868;2024-03-08T11:49:37;12.53;;;8.00;;
6828;SDS011;17930;48.592;8.868;2024-03-08T11:52:04;12.97;;;8.00;;
6828;SDS011;17930;48.592;8.868;2024-03-08T11:54:32;17.20;;;8.03;;
6828;SDS011;17930;48.592;8.868;2024-03-08T11:57:01;14.37;;;7.80;;
6828;SDS011;17930;48.592;8.868;2024-03-08T11:59:28;15.30;;;8.87;;
6828;SDS011;17930;48.592;8.868;2024-03-08T12:01:59;13.63;;;7.80;;
6828;SDS011;17930;48.592;8.868;2024-03-08T12:04:28;12.27;;;7.47;;
6828;SDS011;17930;48.592;8.868;2024-03-08T12:06:57;12.23;;;7.33;;
6828;SDS011;17930;48.592;8.868;2024-03-08T12:09:27;12.80;;;7.40;;
6828;SDS011;17930;48.592;8.868;2024-03-08T12:11:54;12.57;;;7.97;;
6828;SDS011;17930;48.592;8.868;2024-03-08T12:14:22;12.07;;;7.67;;
6828;SDS011;17930;48.592;8.868;2024-03-08T12:16:58;10.50;;;7.00;;
6828;SDS011;17930;48.592;8.868;2024-03-08T12:19:26;12.60;;;7.60;;
6828;SDS011;17930;48.592;8.868;2024-03-08T12:21:53;14.33;;;8.57;;
6828;SDS011;17930;48.592;8.868;2024-03-08T12:24:20;11.70;;;7.50;;
6828;SDS011;17930;48.592;8.868;2024-03-08T12:26:49;11.90;;;7.87;;
6828;SDS011;17930;48.592;8.868;2024-03-08T12:29:20;10.60;;;7.60;;
6828;SDS011;17930;48.592;8.868;2024-03-08T12:31:53;17.47;;;8.27;;
6828;SDS011;17930;48.592;8.868;2024-03-08T12:34:21;10.80;;;7.33;;
6828;SDS011;17930;48.592;8.868;2024-03-08T12:36:48;10.70;;;8.60;;
6828;SDS011;17930;48.592;8.868;2024-03-08T12:39:17;12.40;;;7.83;;
6828;SDS011;17930;48.592;8.868;2024-03-08T12:41:48;10.67;;;7.73;;
6828;SDS011;17930;48.592;8.868;2024-03-08T12:44:17;12.07;;;8.30;;
6828;SDS011;17930;48.592;8.868;2024-03-08T12:46:49;12.37;;;7.97;;
6828;SDS011;17930;48.592;8.868;2024-03-08T12:49:17;10.00;;;7.97;;
6828;SDS011;17930;48.592;8.868;2024-03-08T12:51:48;10.97;;;7.97;;
6828;SDS011;17930;48.592;8.868;2024-03-08T12:54:17;10.27;;;7.50;;
6828;SDS011;17930;48.592;8.868;2024-03-08T12:56:48;12.03;;;8.97;;
6828;SDS011;17930;48.592;8.868;2024-03-08T12:59:18;12.30;;;8.50;;
6828;SDS011;17930;48.592;8.868;2024-03-08T13:01:47;10.90;;;7.63;;
6828;SDS011;17930;48.592;8.868;2024-03-08T13:04:16;11.33;;;8.60;;
6828;SDS011;17930;48.592;8.868;2024-03-08T13:06:44;12.67;;;8.37;;
6828;SDS011;17930;48.592;8.868;2024-03-08T13:09:12;11.63;;;8.07;;
6828;SDS011;17930;48.592;8.868;2024-03-08T13:11:39;10.90;;;7.90;;
6828;SDS011;17930;48.592;8.868;2024-03-08T13:14:05;11.57;;;8.07;;
6828;SDS011;17930;48.592;8.868;2024-03-08T13:16:32;10.80;;;7.80;;
6828;SDS011;17930;48.592;8.868;2024-03-08T13:19:01;11.10;;;7.73;;
6828;SDS011;17930;48.592;8.868;2024-03-08T13:21:28;12.30;;;8.33;;
6828;SDS011;17930;48.592;8.868;2024-03-08T13:23:55;15.13;;;8.10;;
6828;SDS011;17930;48.592;8.868;2024-03-08T13:26:24;10.70;;;8.37;;
6828;SDS011;17930;48.592;8.868;2024-03-08T13:28:57;9.87;;;7.13;;
6828;SDS011;17930;48.592;8.868;2024-03-08T13:31:24;11.30;;;7.47;;
6828;SDS011;17930;48.592;8.868;2024-03-08T13:33:51;14.53;;;7.87;;
6828;SDS011;17930;48.592;8.868;2024-03-08T13:36:24;11.40;;;8.10;;
6828;SDS011;17930;48.592;8.868;2024-03-08T13:38:54;12.00;;;8.07;;
6828;SDS011;17930;48.592;8.868;2024-03-08T13:41:22;12.30;;;8.40;;
6828;SDS011;17930;48.592;8.868;2024-03-08T13:43:49;14.40;;;8.77;;
6828;SDS011;17930;48.592;8.868;2024-03-08T13:46:17;12.27;;;7.67;;
6828;SDS011;17930;48.592;8.868;2024-03-08T13:48:43;10.30;;;7.70;;
6828;SDS011;17930;48.592;8.868;2024-03-08T13:51:10;10.90;;;7.03;;
6828;SDS011;17930;48.592;8.868;2024-03-08T13:53:42;12.40;;;8.07;;
6828;SDS011;17930;48.592;8.868;2024-03-08T13:56:09;13.53;;;8.43;;
6828;SDS011;17930;48.592;8.868;2024-03-08T13:58:36;12.13;;;7.47;;
6828;SDS011;17930;48.592;8.868;2024-03-08T14:01:05;10.27;;;7.23;;
6828;SDS011;17930;48.592;8.868;2024-03-08T14:03:36;13.00;;;8.47;;
6828;SDS011;17930;48.592;8.868;2024-03-08T14:06:03;12.87;;;8.30;;
6828;SDS011;17930;48.592;8.868;2024-03-08T14:08:32;11.73;;;7.83;;
6828;SDS011;17930;48.592;8.868;2024-03-08T14:11:00;12.50;;;7.33;;
6828;SDS011;17930;48.592;8.868;2024-03-08T14:13:36;10.57;;;7.40;;
6828;SDS011;17930;48.592;8.868;2024-03-08T14:16:07;12.57;;;8.27;;
6828;SDS011;17930;48.592;8.868;2024-03-08T14:18:36;10.67;;;7.53;;
6828;SDS011;17930;48.592;8.868;2024-03-08T14:21:03;12.77;;;8.03;;
6828;SDS011;17930;48.592;8.868;2024-03-08T14:23:30;10.83;;;6.67;;
6828;SDS011;17930;48.592;8.868;2024-03-08T14:25:58;10.30;;;7.23;;
6828;SDS011;17930;48.592;8.868;2024-03-08T14:28:26;13.10;;;7.53;;
6828;SDS011;17930;48.592;8.868;2024-03-08T14:30:53;10.33;;;7.13;;
6828;SDS011;17930;48.592;8.868;2024-03-08T14:33:20;13.37;;;7.73;;
6828;SDS011;17930;48.592;8.868;2024-03-08T14:35:47;10.80;;;7.47;;
6828;SDS011;17930;48.592;8.868;2024-03-08T14:38:17;12.87;;;8.37;;
6828;SDS011;17930;48.592;8.868;2024-03-08T14:40:47;10.47;;;7.33;;
6828;SDS011;17930;48.592;8.868;2024-03-08T14:43:13;13.13;;;7.93;;
6828;SDS011;17930;48.592;8.868;2024-03-08T14:45:43;10.67;;;7.47;;